sensor_id;sensor_type;location;lat;lon;timestamp;P1;durP1;ratioP1;P2;durP2;ratioP2
6131;SDS011;3097;42.692;23.278;2022-10-31T00:01:11;4.47;;;4.00;;
6131;SDS011;3097;42.692;23.278;2022-10-31T00:03:44;5.00;;;4.50;;
6131;SDS011;3097;42.692;23.278;2022-10-31T00:06:09;4.57;;;4.17;;
6131;SDS011;3097;42.692;23.278;2022-10-31T00:08:35;4.57;;;4.17;;
6131;SDS011;3097;42.692;23.278;2022-10-31T00:11:00;4.87;;;4.23;;
6131;SDS011;3097;42.692;23.278;2022-10-31T00:13:26;5.13;;;4.73;;
6131;SDS011;3097;42.692;23.278;2022-10-31T00:15:51;12.50;;;8.20;;
6131;SDS011;3097;42.692;23.278;2022-10-31T00:18:17;7.43;;;6.03;;
6131;SDS011;3097;42.692;23.278;2022-10-31T00:20:43;7.23;;;5.80;;
6131;SDS011;3097;42.692;23.278;2022-10-31T00:23:09;4.60;;;4.20;;
6131;SDS011;3097;42.692;23.278;2022-10-31T00:25:36;5.10;;;4.60;;
6131;SDS011;3097;42.692;23.278;2022-10-31T00:28:04;5.37;;;4.77;;
6131;SDS011;3097;42.692;23.278;2022-10-31T00:30:31;7.20;;;4.80;;
6131;SDS011;3097;42.692;23.278;2022-10-31T00:32:56;5.20;;;4.70;;
6131;SDS011;3097;42.692;23.278;2022-10-31T00:35:22;5.33;;;4.83;;
6131;SDS011;3097;42.692;23.278;2022-10-31T00:37:47;5.80;;;4.13;;
6131;SDS011;3097;42.692;23.278;2022-10-31T00:40:13;8.30;;;6.80;;
6131;SDS011;3097;42.692;23.278;2022-10-31T00:42:39;7.20;;;5.90;;
6131;SDS011;3097;42.692;23.278;2022-10-31T00:45:05;9.37;;;7.90;;
6131;SDS011;3097;42.692;23.278;2022-10-31T00:47:30;8.97;;;6.77;;
6131;SDS011;3097;42.692;23.278;2022-10-31T00:49:56;5.53;;;5.03;;
6131;SDS011;3097;42.692;23.278;2022-10-31T00:52:21;7.20;;;6.50;;
6131;SDS011;3097;42.692;23.278;2022-10-31T00:54:46;8.17;;;6.50;;
6131;SDS011;3097;42.692;23.278;2022-10-31T00:57:12;5.47;;;4.67;;
6131;SDS011;3097;42.692;23.278;2022-10-31T00:59:37;6.17;;;4.30;;
6131;SDS011;3097;42.692;23.278;2022-10-31T01:02:03;4.80;;;4.40;;
6131;SDS011;3097;42.692;23.278;2022-10-31T01:04:28;9.17;;;3.77;;
6131;SDS011;3097;42.692;23.278;2022-10-31T01:06:54;5.20;;;4.13;;
6131;SDS011;3097;42.692;23.278;2022-10-31T01:09:19;4.43;;;4.03;;
6131;SDS011;3097;42.692;23.278;2022-10-31T01:11:44;5.77;;;4.33;;
6131;SDS011;3097;42.692;23.278;2022-10-31T01:14:10;4.43;;;4.03;;
6131;SDS011;3097;42.692;23.278;2022-10-31T01:16:35;5.10;;;4.60;;
6131;SDS011;3097;42.692;23.278;2022-10-31T01:19:01;5.67;;;5.00;;
6131;SDS011;3097;42.692;23.278;2022-10-31T01:21:28;4.13;;;3.73;;
6131;SDS011;3097;42.692;23.278;2022-10-31T01:23:54;7.87;;;5.33;;
6131;SDS011;3097;42.692;23.278;2022-10-31T01:26:24;8.57;;;5.97;;
6131;SDS011;3097;42.692;23.278;2022-10-31T01:28:55;5.10;;;4.70;;
6131;SDS011;3097;42.692;23.278;2022-10-31T01:31:22;6.60;;;4.57;;
6131;SDS011;3097;42.692;23.278;2022-10-31T01:33:56;5.63;;;4.90;;
6131;SDS011;3097;42.692;23.278;2022-10-31T01:36:23;5.93;;;4.83;;
6131;SDS011;3097;42.692;23.278;2022-10-31T01:38:52;6.20;;;5.53;;
6131;SDS011;3097;42.692;23.278;2022-10-31T01:41:20;6.33;;;5.17;;
6131;SDS011;3097;42.692;23.278;2022-10-31T01:48:59;9.00;;;6.10;;
6131;SDS011;3097;42.692;23.278;2022-10-31T01:51:31;6.03;;;5.50;;
6131;SDS011;3097;42.692;23.278;2022-10-31T01:54:11;6.87;;;5.77;;
6131;SDS011;3097;42.692;23.278;2022-10-31T01:56:40;6.80;;;5.33;;
6131;SDS011;3097;42.692;23.278;2022-10-31T01:59:14;6.27;;;5.60;;
6131;SDS011;3097;42.692;23.278;2022-10-31T02:01:43;7.57;;;6.30;;
6131;SDS011;3097;42.692;23.278;2022-10-31T02:04:09;6.27;;;5.67;;
6131;SDS011;3097;42.692;23.278;2022-10-31T02:06:40;5.70;;;5.10;;
6131;SDS011;3097;42.692;23.278;2022-10-31T02:09:12;6.40;;;5.80;;
6131;SDS011;3097;42.692;23.278;2022-10-31T02:11:39;8.27;;;6.07;;
6131;SDS011;3097;42.692;23.278;2022-10-31T02:14:07;8.07;;;6.17;;
6131;SDS011;3097;42.692;23.278;2022-10-31T02:16:32;6.87;;;6.00;;
6131;SDS011;3097;42.692;23.278;2022-10-31T02:18:59;7.30;;;6.20;;
6131;SDS011;3097;42.692;23.278;2022-10-31T02:30:17;9.27;;;5.43;;
6131;SDS011;3097;42.692;23.278;2022-10-31T02:33:50;7.00;;;5.97;;
6131;SDS011;3097;42.692;23.278;2022-10-31T02:36:04;6.20;;;5.60;;
6131;SDS011;3097;42.692;23.278;2022-10-31T02:41:18;9.07;;;5.93;;
6131;SDS011;3097;42.692;23.278;2022-10-31T02:43:56;7.80;;;5.77;;
6131;SDS011;3097;42.692;23.278;2022-10-31T02:49:13;6.47;;;5.67;;
6131;SDS011;3097;42.692;23.278;2022-10-31T02:51:46;7.73;;;6.17;;
6131;SDS011;3097;42.692;23.278;2022-10-31T02:54:19;9.20;;;6.97;;
6131;SDS011;3097;42.692;23.278;2022-10-31T02:56:48;7.80;;;6.47;;
6131;SDS011;3097;42.692;23.278;2022-10-31T02:59:15;8.20;;;6.60;;
6131;SDS011;3097;42.692;23.278;2022-10-31T03:01:46;8.40;;;6.60;;
6131;SDS011;3097;42.692;23.278;2022-10-31T03:04:39;7.37;;;5.70;;
6131;SDS011;3097;42.692;23.278;2022-10-31T03:07:28;6.77;;;5.97;;
6131;SDS011;3097;42.692;23.278;2022-10-31T03:10:20;6.67;;;6.03;;
6131;SDS011;3097;42.692;23.278;2022-10-31T03:15:45;10.30;;;7.07;;
6131;SDS011;3097;42.692;23.278;2022-10-31T03:18:37;7.03;;;6.37;;
6131;SDS011;3097;42.692;23.278;2022-10-31T03:21:08;8.30;;;6.87;;
6131;SDS011;3097;42.692;23.278;2022-10-31T03:23:40;10.57;;;6.77;;
6131;SDS011;3097;42.692;23.278;2022-10-31T03:26:09;9.20;;;7.73;;
6131;SDS011;3097;42.692;23.278;2022-10-31T03:28:49;11.63;;;9.00;;
6131;SDS011;3097;42.692;23.278;2022-10-31T03:31:19;11.03;;;7.37;;
6131;SDS011;3097;42.692;23.278;2022-10-31T03:33:50;12.57;;;8.70;;
6131;SDS011;3097;42.692;23.278;2022-10-31T03:36:17;10.47;;;8.37;;
6131;SDS011;3097;42.692;23.278;2022-10-31T03:38:44;14.57;;;10.00;;
6131;SDS011;3097;42.692;23.278;2022-10-31T03:41:13;16.37;;;11.07;;
6131;SDS011;3097;42.692;23.278;2022-10-31T03:43:46;12.27;;;9.27;;
6131;SDS011;3097;42.692;23.278;2022-10-31T03:46:17;9.67;;;7.97;;
6131;SDS011;3097;42.692;23.278;2022-10-31T03:48:43;9.43;;;7.77;;
6131;SDS011;3097;42.692;23.278;2022-10-31T03:51:15;9.43;;;7.80;;
6131;SDS011;3097;42.692;23.278;2022-10-31T03:56:33;9.60;;;7.93;;
6131;SDS011;3097;42.692;23.278;2022-10-31T03:59:05;8.87;;;7.53;;
6131;SDS011;3097;42.692;23.278;2022-10-31T04:01:36;10.73;;;7.80;;
6131;SDS011;3097;42.692;23.278;2022-10-31T04:04:06;12.87;;;8.10;;
6131;SDS011;3097;42.692;23.278;2022-10-31T04:06:33;9.70;;;7.33;;
6131;SDS011;3097;42.692;23.278;2022-10-31T04:09:02;9.10;;;7.70;;
6131;SDS011;3097;42.692;23.278;2022-10-31T04:11:31;13.80;;;8.67;;
6131;SDS011;3097;42.692;23.278;2022-10-31T04:14:01;15.37;;;9.97;;
6131;SDS011;3097;42.692;23.278;2022-10-31T04:16:29;14.83;;;10.47;;
6131;SDS011;3097;42.692;23.278;2022-10-31T04:18:55;20.80;;;11.97;;
6131;SDS011;3097;42.692;23.278;2022-10-31T04:21:26;19.60;;;13.03;;
6131;SDS011;3097;42.692;23.278;2022-10-31T04:23:53;22.27;;;12.57;;
6131;SDS011;3097;42.692;23.278;2022-10-31T04:26:18;19.47;;;12.27;;
6131;SDS011;3097;42.692;23.278;2022-10-31T04:28:44;19.93;;;11.57;;
6131;SDS011;3097;42.692;23.278;2022-10-31T04:31:10;22.80;;;14.40;;
6131;SDS011;3097;42.692;23.278;2022-10-31T04:33:36;25.63;;;14.90;;
6131;SDS011;3097;42.692;23.278;2022-10-31T04:36:02;23.77;;;14.30;;
6131;SDS011;3097;42.692;23.278;2022-10-31T04:38:29;23.80;;;14.30;;
6131;SDS011;3097;42.692;23.278;2022-10-31T04:40:55;26.60;;;15.20;;
6131;SDS011;3097;42.692;23.278;2022-10-31T04:43:20;24.57;;;15.13;;
6131;SDS011;3097;42.692;23.278;2022-10-31T04:45:46;30.40;;;16.30;;
6131;SDS011;3097;42.692;23.278;2022-10-31T04:48:11;35.33;;;19.27;;
6131;SDS011;3097;42.692;23.278;2022-10-31T04:50:36;38.60;;;18.53;;
6131;SDS011;3097;42.692;23.278;2022-10-31T04:53:02;39.77;;;19.90;;
6131;SDS011;3097;42.692;23.278;2022-10-31T04:55:27;37.97;;;21.40;;
6131;SDS011;3097;42.692;23.278;2022-10-31T04:57:53;41.57;;;23.87;;
6131;SDS011;3097;42.692;23.278;2022-10-31T05:00:19;48.77;;;24.30;;
6131;SDS011;3097;42.692;23.278;2022-10-31T05:02:49;45.40;;;25.20;;
6131;SDS011;3097;42.692;23.278;2022-10-31T05:05:17;49.93;;;26.67;;
6131;SDS011;3097;42.692;23.278;2022-10-31T05:07:45;40.07;;;23.97;;
6131;SDS011;3097;42.692;23.278;2022-10-31T05:10:12;41.70;;;24.50;;
6131;SDS011;3097;42.692;23.278;2022-10-31T05:13:12;41.17;;;23.10;;
6131;SDS011;3097;42.692;23.278;2022-10-31T05:15:31;50.30;;;24.23;;
6131;SDS011;3097;42.692;23.278;2022-10-31T05:17:57;47.33;;;22.80;;
6131;SDS011;3097;42.692;23.278;2022-10-31T05:20:26;40.50;;;22.03;;
6131;SDS011;3097;42.692;23.278;2022-10-31T05:22:54;39.03;;;22.47;;
6131;SDS011;3097;42.692;23.278;2022-10-31T05:25:21;40.03;;;22.77;;
6131;SDS011;3097;42.692;23.278;2022-10-31T05:27:50;42.37;;;22.97;;
6131;SDS011;3097;42.692;23.278;2022-10-31T05:30:17;51.00;;;26.47;;
6131;SDS011;3097;42.692;23.278;2022-10-31T05:32:51;46.93;;;24.50;;
6131;SDS011;3097;42.692;23.278;2022-10-31T05:35:26;51.40;;;29.00;;
6131;SDS011;3097;42.692;23.278;2022-10-31T05:37:54;54.17;;;30.80;;
6131;SDS011;3097;42.692;23.278;2022-10-31T05:40:20;56.63;;;30.00;;
6131;SDS011;3097;42.692;23.278;2022-10-31T05:42:47;52.90;;;31.20;;
6131;SDS011;3097;42.692;23.278;2022-10-31T05:45:15;59.20;;;32.63;;
6131;SDS011;3097;42.692;23.278;2022-10-31T05:47:42;58.50;;;33.83;;
6131;SDS011;3097;42.692;23.278;2022-10-31T05:50:14;53.80;;;28.83;;
6131;SDS011;3097;42.692;23.278;2022-10-31T05:52:40;54.83;;;31.97;;
6131;SDS011;3097;42.692;23.278;2022-10-31T05:55:05;49.27;;;28.20;;
6131;SDS011;3097;42.692;23.278;2022-10-31T05:57:31;51.33;;;28.47;;
6131;SDS011;3097;42.692;23.278;2022-10-31T05:59:58;51.83;;;27.47;;
6131;SDS011;3097;42.692;23.278;2022-10-31T06:02:23;57.57;;;28.13;;
6131;SDS011;3097;42.692;23.278;2022-10-31T06:04:49;51.73;;;27.37;;
6131;SDS011;3097;42.692;23.278;2022-10-31T06:07:14;40.97;;;20.83;;
6131;SDS011;3097;42.692;23.278;2022-10-31T06:09:41;32.63;;;17.27;;
6131;SDS011;3097;42.692;23.278;2022-10-31T06:12:06;26.37;;;14.07;;
6131;SDS011;3097;42.692;23.278;2022-10-31T06:14:33;22.13;;;12.43;;
6131;SDS011;3097;42.692;23.278;2022-10-31T06:16:58;21.47;;;13.67;;
6131;SDS011;3097;42.692;23.278;2022-10-31T06:19:24;20.63;;;12.40;;
6131;SDS011;3097;42.692;23.278;2022-10-31T06:21:51;20.57;;;13.40;;
6131;SDS011;3097;42.692;23.278;2022-10-31T06:24:17;17.00;;;11.07;;
6131;SDS011;3097;42.692;23.278;2022-10-31T06:26:42;14.10;;;10.97;;
6131;SDS011;3097;42.692;23.278;2022-10-31T06:29:08;15.23;;;11.43;;
6131;SDS011;3097;42.692;23.278;2022-10-31T06:31:33;17.23;;;11.27;;
6131;SDS011;3097;42.692;23.278;2022-10-31T06:33:59;17.17;;;11.00;;
6131;SDS011;3097;42.692;23.278;2022-10-31T06:36:26;17.83;;;11.90;;
6131;SDS011;3097;42.692;23.278;2022-10-31T06:38:51;18.47;;;11.87;;
6131;SDS011;3097;42.692;23.278;2022-10-31T06:41:17;20.83;;;12.17;;
6131;SDS011;3097;42.692;23.278;2022-10-31T06:43:45;14.43;;;11.40;;
6131;SDS011;3097;42.692;23.278;2022-10-31T06:46:11;19.00;;;11.67;;
6131;SDS011;3097;42.692;23.278;2022-10-31T06:48:36;17.37;;;11.93;;
6131;SDS011;3097;42.692;23.278;2022-10-31T06:51:03;16.93;;;11.93;;
6131;SDS011;3097;42.692;23.278;2022-10-31T06:53:28;17.43;;;12.30;;
6131;SDS011;3097;42.692;23.278;2022-10-31T06:55:55;19.93;;;13.17;;
6131;SDS011;3097;42.692;23.278;2022-10-31T06:58:21;19.47;;;13.20;;
6131;SDS011;3097;42.692;23.278;2022-10-31T07:00:47;20.17;;;12.97;;
6131;SDS011;3097;42.692;23.278;2022-10-31T07:03:13;20.13;;;13.23;;
6131;SDS011;3097;42.692;23.278;2022-10-31T07:05:40;21.40;;;13.50;;
6131;SDS011;3097;42.692;23.278;2022-10-31T07:08:07;21.07;;;13.60;;
6131;SDS011;3097;42.692;23.278;2022-10-31T07:10:38;23.13;;;14.00;;
6131;SDS011;3097;42.692;23.278;2022-10-31T07:13:05;24.90;;;14.07;;
6131;SDS011;3097;42.692;23.278;2022-10-31T07:15:35;20.67;;;13.87;;
6131;SDS011;3097;42.692;23.278;2022-10-31T07:18:02;19.17;;;12.87;;
6131;SDS011;3097;42.692;23.278;2022-10-31T07:20:29;22.80;;;13.37;;
6131;SDS011;3097;42.692;23.278;2022-10-31T07:22:56;16.63;;;12.07;;
6131;SDS011;3097;42.692;23.278;2022-10-31T07:25:22;17.40;;;11.83;;
6131;SDS011;3097;42.692;23.278;2022-10-31T07:27:47;17.40;;;12.33;;
6131;SDS011;3097;42.692;23.278;2022-10-31T07:30:13;19.17;;;12.93;;
6131;SDS011;3097;42.692;23.278;2022-10-31T07:35:10;15.47;;;12.53;;
6131;SDS011;3097;42.692;23.278;2022-10-31T07:37:37;15.40;;;12.40;;
6131;SDS011;3097;42.692;23.278;2022-10-31T07:40:05;14.77;;;12.53;;
6131;SDS011;3097;42.692;23.278;2022-10-31T07:42:35;17.10;;;13.07;;
6131;SDS011;3097;42.692;23.278;2022-10-31T07:45:02;18.27;;;13.27;;
6131;SDS011;3097;42.692;23.278;2022-10-31T07:47:41;17.90;;;15.23;;
6131;SDS011;3097;42.692;23.278;2022-10-31T07:50:08;20.37;;;13.90;;
6131;SDS011;3097;42.692;23.278;2022-10-31T07:52:35;18.13;;;13.40;;
6131;SDS011;3097;42.692;23.278;2022-10-31T07:55:01;16.63;;;12.73;;
6131;SDS011;3097;42.692;23.278;2022-10-31T07:57:27;14.27;;;11.63;;
6131;SDS011;3097;42.692;23.278;2022-10-31T07:59:53;16.57;;;13.27;;
6131;SDS011;3097;42.692;23.278;2022-10-31T08:02:18;17.57;;;14.47;;
6131;SDS011;3097;42.692;23.278;2022-10-31T08:04:43;19.13;;;14.27;;
6131;SDS011;3097;42.692;23.278;2022-10-31T08:07:09;18.10;;;13.90;;
6131;SDS011;3097;42.692;23.278;2022-10-31T08:09:34;19.63;;;14.00;;
6131;SDS011;3097;42.692;23.278;2022-10-31T08:12:00;16.37;;;13.73;;
6131;SDS011;3097;42.692;23.278;2022-10-31T08:14:26;19.77;;;13.50;;
6131;SDS011;3097;42.692;23.278;2022-10-31T08:16:52;18.53;;;14.47;;
6131;SDS011;3097;42.692;23.278;2022-10-31T08:19:19;16.90;;;13.63;;
6131;SDS011;3097;42.692;23.278;2022-10-31T08:21:44;16.90;;;14.20;;
6131;SDS011;3097;42.692;23.278;2022-10-31T08:24:09;17.33;;;13.27;;
6131;SDS011;3097;42.692;23.278;2022-10-31T08:26:35;18.63;;;12.47;;
6131;SDS011;3097;42.692;23.278;2022-10-31T08:29:00;15.73;;;11.60;;
6131;SDS011;3097;42.692;23.278;2022-10-31T08:31:26;21.10;;;12.57;;
6131;SDS011;3097;42.692;23.278;2022-10-31T08:33:53;16.63;;;11.90;;
6131;SDS011;3097;42.692;23.278;2022-10-31T08:36:20;16.37;;;11.33;;
6131;SDS011;3097;42.692;23.278;2022-10-31T08:38:48;13.63;;;11.07;;
6131;SDS011;3097;42.692;23.278;2022-10-31T08:41:14;15.17;;;11.63;;
6131;SDS011;3097;42.692;23.278;2022-10-31T08:43:39;16.00;;;11.63;;
6131;SDS011;3097;42.692;23.278;2022-10-31T08:46:05;13.80;;;11.53;;
6131;SDS011;3097;42.692;23.278;2022-10-31T08:48:31;13.70;;;11.40;;
6131;SDS011;3097;42.692;23.278;2022-10-31T08:50:57;14.60;;;10.90;;
6131;SDS011;3097;42.692;23.278;2022-10-31T08:53:24;15.30;;;10.97;;
6131;SDS011;3097;42.692;23.278;2022-10-31T08:55:50;15.80;;;12.63;;
6131;SDS011;3097;42.692;23.278;2022-10-31T08:58:19;13.93;;;10.87;;
6131;SDS011;3097;42.692;23.278;2022-10-31T09:00:45;14.23;;;11.10;;
6131;SDS011;3097;42.692;23.278;2022-10-31T09:03:13;16.03;;;10.97;;
6131;SDS011;3097;42.692;23.278;2022-10-31T09:05:40;14.37;;;11.60;;
6131;SDS011;3097;42.692;23.278;2022-10-31T09:08:06;13.10;;;10.50;;
6131;SDS011;3097;42.692;23.278;2022-10-31T09:10:33;12.20;;;10.70;;
6131;SDS011;3097;42.692;23.278;2022-10-31T09:13:01;12.60;;;11.23;;
6131;SDS011;3097;42.692;23.278;2022-10-31T09:15:32;13.63;;;10.60;;
6131;SDS011;3097;42.692;23.278;2022-10-31T09:17:59;14.53;;;11.10;;
6131;SDS011;3097;42.692;23.278;2022-10-31T09:20:25;17.93;;;11.20;;
6131;SDS011;3097;42.692;23.278;2022-10-31T09:23:04;12.23;;;10.47;;
6131;SDS011;3097;42.692;23.278;2022-10-31T09:25:35;14.40;;;11.53;;
6131;SDS011;3097;42.692;23.278;2022-10-31T09:28:01;15.73;;;10.53;;
6131;SDS011;3097;42.692;23.278;2022-10-31T09:30:29;15.67;;;11.27;;
6131;SDS011;3097;42.692;23.278;2022-10-31T09:33:00;17.83;;;11.57;;
6131;SDS011;3097;42.692;23.278;2022-10-31T09:35:27;15.73;;;9.30;;
6131;SDS011;3097;42.692;23.278;2022-10-31T09:37:53;12.33;;;8.37;;
6131;SDS011;3097;42.692;23.278;2022-10-31T09:43:01;13.27;;;9.03;;
6131;SDS011;3097;42.692;23.278;2022-10-31T09:50:54;7.10;;;6.40;;
6131;SDS011;3097;42.692;23.278;2022-10-31T09:56:04;9.07;;;7.47;;
6131;SDS011;3097;42.692;23.278;2022-10-31T09:58:32;15.57;;;10.27;;
6131;SDS011;3097;42.692;23.278;2022-10-31T10:01:04;11.90;;;9.00;;
6131;SDS011;3097;42.692;23.278;2022-10-31T10:03:45;7.47;;;6.63;;
6131;SDS011;3097;42.692;23.278;2022-10-31T10:06:16;9.53;;;5.83;;
6131;SDS011;3097;42.692;23.278;2022-10-31T10:08:51;6.20;;;5.60;;
6131;SDS011;3097;42.692;23.278;2022-10-31T10:11:27;7.10;;;6.40;;
6131;SDS011;3097;42.692;23.278;2022-10-31T10:19:46;7.53;;;6.23;;
6131;SDS011;3097;42.692;23.278;2022-10-31T10:25:22;6.77;;;5.37;;
6131;SDS011;3097;42.692;23.278;2022-10-31T10:30:49;3.90;;;3.60;;
6131;SDS011;3097;42.692;23.278;2022-10-31T10:33:19;4.23;;;3.83;;
6131;SDS011;3097;42.692;23.278;2022-10-31T10:35:58;6.57;;;4.47;;
6131;SDS011;3097;42.692;23.278;2022-10-31T10:38:31;6.97;;;4.67;;
6131;SDS011;3097;42.692;23.278;2022-10-31T10:40:59;5.93;;;5.33;;
6131;SDS011;3097;42.692;23.278;2022-10-31T10:43:33;6.13;;;5.13;;
6131;SDS011;3097;42.692;23.278;2022-10-31T10:49:10;9.07;;;4.80;;
6131;SDS011;3097;42.692;23.278;2022-10-31T10:56:56;8.70;;;5.13;;
6131;SDS011;3097;42.692;23.278;2022-10-31T10:59:43;4.90;;;4.10;;
6131;SDS011;3097;42.692;23.278;2022-10-31T11:02:21;4.83;;;4.40;;
6131;SDS011;3097;42.692;23.278;2022-10-31T11:04:52;8.60;;;4.50;;
6131;SDS011;3097;42.692;23.278;2022-10-31T11:07:19;7.40;;;4.90;;
6131;SDS011;3097;42.692;23.278;2022-10-31T11:09:45;7.93;;;5.20;;
6131;SDS011;3097;42.692;23.278;2022-10-31T11:12:26;8.67;;;5.47;;
6131;SDS011;3097;42.692;23.278;2022-10-31T11:14:57;5.60;;;5.10;;
6131;SDS011;3097;42.692;23.278;2022-10-31T11:17:32;6.73;;;5.17;;
6131;SDS011;3097;42.692;23.278;2022-10-31T11:20:01;5.77;;;5.27;;
6131;SDS011;3097;42.692;23.278;2022-10-31T11:22:31;5.30;;;4.80;;
6131;SDS011;3097;42.692;23.278;2022-10-31T11:24:57;6.23;;;4.57;;
6131;SDS011;3097;42.692;23.278;2022-10-31T11:27:23;11.50;;;6.90;;
6131;SDS011;3097;42.692;23.278;2022-10-31T11:29:50;7.07;;;6.23;;
6131;SDS011;3097;42.692;23.278;2022-10-31T11:32:19;7.37;;;5.60;;
6131;SDS011;3097;42.692;23.278;2022-10-31T11:34:47;5.30;;;4.70;;
6131;SDS011;3097;42.692;23.278;2022-10-31T11:37:26;7.53;;;4.30;;
6131;SDS011;3097;42.692;23.278;2022-10-31T11:39:57;4.70;;;3.80;;
6131;SDS011;3097;42.692;23.278;2022-10-31T11:42:29;4.63;;;3.80;;
6131;SDS011;3097;42.692;23.278;2022-10-31T11:45:01;4.83;;;3.80;;
6131;SDS011;3097;42.692;23.278;2022-10-31T11:47:40;6.07;;;4.77;;
6131;SDS011;3097;42.692;23.278;2022-10-31T11:50:14;5.53;;;4.50;;
6131;SDS011;3097;42.692;23.278;2022-10-31T11:52:46;4.27;;;3.80;;
6131;SDS011;3097;42.692;23.278;2022-10-31T11:57:44;4.00;;;3.70;;
6131;SDS011;3097;42.692;23.278;2022-10-31T12:02:48;6.73;;;4.20;;
6131;SDS011;3097;42.692;23.278;2022-10-31T12:05:18;5.27;;;4.50;;
6131;SDS011;3097;42.692;23.278;2022-10-31T12:07:46;10.63;;;4.87;;
6131;SDS011;3097;42.692;23.278;2022-10-31T12:10:14;5.97;;;4.40;;
6131;SDS011;3097;42.692;23.278;2022-10-31T12:17:55;5.43;;;3.87;;
6131;SDS011;3097;42.692;23.278;2022-10-31T12:20:25;4.93;;;4.20;;
6131;SDS011;3097;42.692;23.278;2022-10-31T12:23:06;4.30;;;3.90;;
6131;SDS011;3097;42.692;23.278;2022-10-31T12:25:44;5.37;;;4.10;;
6131;SDS011;3097;42.692;23.278;2022-10-31T12:31:03;10.57;;;5.10;;
6131;SDS011;3097;42.692;23.278;2022-10-31T12:33:39;7.07;;;4.77;;
6131;SDS011;3097;42.692;23.278;2022-10-31T12:36:18;6.50;;;4.87;;
6131;SDS011;3097;42.692;23.278;2022-10-31T12:44:39;5.70;;;4.53;;
6131;SDS011;3097;42.692;23.278;2022-10-31T12:55:11;4.80;;;4.40;;
6131;SDS011;3097;42.692;23.278;2022-10-31T12:57:47;6.47;;;5.40;;
6131;SDS011;3097;42.692;23.278;2022-10-31T13:00:17;7.83;;;4.70;;
6131;SDS011;3097;42.692;23.278;2022-10-31T13:02:47;5.53;;;4.77;;
6131;SDS011;3097;42.692;23.278;2022-10-31T13:08:12;5.97;;;5.47;;
6131;SDS011;3097;42.692;23.278;2022-10-31T13:10:46;8.10;;;4.90;;
6131;SDS011;3097;42.692;23.278;2022-10-31T13:16:00;5.13;;;4.60;;
6131;SDS011;3097;42.692;23.278;2022-10-31T13:18:56;7.83;;;4.70;;
6131;SDS011;3097;42.692;23.278;2022-10-31T13:21:37;5.47;;;4.77;;
6131;SDS011;3097;42.692;23.278;2022-10-31T13:24:12;5.07;;;4.57;;
6131;SDS011;3097;42.692;23.278;2022-10-31T13:26:47;4.87;;;3.87;;
6131;SDS011;3097;42.692;23.278;2022-10-31T13:32:15;7.43;;;5.07;;
6131;SDS011;3097;42.692;23.278;2022-10-31T13:34:42;9.90;;;4.50;;
6131;SDS011;3097;42.692;23.278;2022-10-31T13:40:11;4.77;;;4.37;;
6131;SDS011;3097;42.692;23.278;2022-10-31T13:42:54;6.00;;;4.90;;
6131;SDS011;3097;42.692;23.278;2022-10-31T13:45:30;5.80;;;4.03;;
6131;SDS011;3097;42.692;23.278;2022-10-31T13:47:59;8.93;;;4.70;;
6131;SDS011;3097;42.692;23.278;2022-10-31T13:50:40;5.40;;;4.23;;
6131;SDS011;3097;42.692;23.278;2022-10-31T13:53:14;8.43;;;4.20;;
6131;SDS011;3097;42.692;23.278;2022-10-31T13:56:31;6.00;;;3.93;;
6131;SDS011;3097;42.692;23.278;2022-10-31T14:01:27;8.93;;;4.70;;
6131;SDS011;3097;42.692;23.278;2022-10-31T14:04:07;7.00;;;5.03;;
6131;SDS011;3097;42.692;23.278;2022-10-31T14:09:33;5.33;;;4.83;;
6131;SDS011;3097;42.692;23.278;2022-10-31T14:12:05;6.90;;;4.23;;
6131;SDS011;3097;42.692;23.278;2022-10-31T14:14:40;4.73;;;4.27;;
6131;SDS011;3097;42.692;23.278;2022-10-31T14:17:16;5.00;;;3.93;;
6131;SDS011;3097;42.692;23.278;2022-10-31T14:20:00;4.57;;;3.87;;
6131;SDS011;3097;42.692;23.278;2022-10-31T14:22:31;5.73;;;2.93;;
6131;SDS011;3097;42.692;23.278;2022-10-31T14:24:57;5.90;;;3.53;;
6131;SDS011;3097;42.692;23.278;2022-10-31T14:29:51;9.43;;;5.10;;
6131;SDS011;3097;42.692;23.278;2022-10-31T14:34:56;5.10;;;4.20;;
6131;SDS011;3097;42.692;23.278;2022-10-31T14:45:33;6.10;;;3.83;;
6131;SDS011;3097;42.692;23.278;2022-10-31T14:53:19;4.73;;;4.17;;
6131;SDS011;3097;42.692;23.278;2022-10-31T14:55:49;10.17;;;5.07;;
6131;SDS011;3097;42.692;23.278;2022-10-31T14:58:33;9.97;;;5.10;;
6131;SDS011;3097;42.692;23.278;2022-10-31T15:01:03;7.90;;;4.60;;
6131;SDS011;3097;42.692;23.278;2022-10-31T15:05:59;6.97;;;4.47;;
6131;SDS011;3097;42.692;23.278;2022-10-31T15:08:30;6.90;;;3.70;;
6131;SDS011;3097;42.692;23.278;2022-10-31T15:11:23;6.83;;;3.90;;
6131;SDS011;3097;42.692;23.278;2022-10-31T15:13:54;4.07;;;3.73;;
6131;SDS011;3097;42.692;23.278;2022-10-31T15:16:22;9.07;;;4.50;;
6131;SDS011;3097;42.692;23.278;2022-10-31T15:18:54;9.87;;;4.80;;
6131;SDS011;3097;42.692;23.278;2022-10-31T15:21:24;6.23;;;4.57;;
6131;SDS011;3097;42.692;23.278;2022-10-31T15:23:53;11.23;;;5.23;;
6131;SDS011;3097;42.692;23.278;2022-10-31T15:26:22;21.13;;;11.23;;
6131;SDS011;3097;42.692;23.278;2022-10-31T15:29:00;21.90;;;13.17;;
6131;SDS011;3097;42.692;23.278;2022-10-31T15:31:27;17.53;;;9.97;;
6131;SDS011;3097;42.692;23.278;2022-10-31T15:33:53;31.50;;;12.57;;
6131;SDS011;3097;42.692;23.278;2022-10-31T15:36:23;48.53;;;24.10;;
6131;SDS011;3097;42.692;23.278;2022-10-31T15:38:51;51.50;;;27.80;;
6131;SDS011;3097;42.692;23.278;2022-10-31T15:44:47;40.20;;;20.77;;
6131;SDS011;3097;42.692;23.278;2022-10-31T15:49:33;25.97;;;13.53;;
6131;SDS011;3097;42.692;23.278;2022-10-31T15:52:03;55.77;;;18.00;;
6131;SDS011;3097;42.692;23.278;2022-10-31T15:54:34;46.17;;;17.93;;
6131;SDS011;3097;42.692;23.278;2022-10-31T15:57:09;31.67;;;15.67;;
6131;SDS011;3097;42.692;23.278;2022-10-31T15:59:36;23.80;;;11.73;;
6131;SDS011;3097;42.692;23.278;2022-10-31T16:02:03;25.37;;;13.00;;
6131;SDS011;3097;42.692;23.278;2022-10-31T16:04:36;23.07;;;10.70;;
6131;SDS011;3097;42.692;23.278;2022-10-31T16:07:02;19.33;;;11.20;;
6131;SDS011;3097;42.692;23.278;2022-10-31T16:09:47;19.20;;;10.70;;
6131;SDS011;3097;42.692;23.278;2022-10-31T16:12:16;26.27;;;11.83;;
6131;SDS011;3097;42.692;23.278;2022-10-31T16:14:43;23.43;;;12.53;;
6131;SDS011;3097;42.692;23.278;2022-10-31T16:17:15;31.17;;;13.53;;
6131;SDS011;3097;42.692;23.278;2022-10-31T16:19:56;29.70;;;13.97;;
6131;SDS011;3097;42.692;23.278;2022-10-31T16:22:28;34.20;;;14.73;;
6131;SDS011;3097;42.692;23.278;2022-10-31T16:25:00;32.77;;;14.40;;
6131;SDS011;3097;42.692;23.278;2022-10-31T16:27:31;23.87;;;13.00;;
6131;SDS011;3097;42.692;23.278;2022-10-31T16:29:59;30.67;;;13.63;;
6131;SDS011;3097;42.692;23.278;2022-10-31T16:35:25;26.03;;;12.63;;
6131;SDS011;3097;42.692;23.278;2022-10-31T16:38:02;45.63;;;19.97;;
6131;SDS011;3097;42.692;23.278;2022-10-31T16:40:29;43.37;;;20.70;;
6131;SDS011;3097;42.692;23.278;2022-10-31T16:42:56;48.60;;;21.50;;
6131;SDS011;3097;42.692;23.278;2022-10-31T16:45:24;48.17;;;21.37;;
6131;SDS011;3097;42.692;23.278;2022-10-31T16:47:51;56.57;;;27.63;;
6131;SDS011;3097;42.692;23.278;2022-10-31T16:50:24;93.03;;;39.97;;
6131;SDS011;3097;42.692;23.278;2022-10-31T16:52:51;62.93;;;27.83;;
6131;SDS011;3097;42.692;23.278;2022-10-31T16:55:17;49.30;;;20.83;;
6131;SDS011;3097;42.692;23.278;2022-10-31T16:57:46;48.93;;;23.47;;
6131;SDS011;3097;42.692;23.278;2022-10-31T17:00:18;59.10;;;23.93;;
6131;SDS011;3097;42.692;23.278;2022-10-31T17:02:47;64.90;;;24.23;;
6131;SDS011;3097;42.692;23.278;2022-10-31T17:05:16;64.13;;;23.60;;
6131;SDS011;3097;42.692;23.278;2022-10-31T17:07:42;48.33;;;21.97;;
6131;SDS011;3097;42.692;23.278;2022-10-31T17:10:09;62.20;;;22.03;;
6131;SDS011;3097;42.692;23.278;2022-10-31T17:12:37;55.80;;;19.90;;
6131;SDS011;3097;42.692;23.278;2022-10-31T17:15:06;51.43;;;19.10;;